Time;durP1;ratioP1;P1;durP2;ratioP2;P2;SDS_P1;SDS_P2;PMS_P1;PMS_P2;Temp;Humidity;BMP_temperature;BMP_pressure;BME280_temperature;BME280_humidity;BME280_pressure;Samples;Min_cycle;Max_cycle;Signal;HPM_P1;HPM_P2
2022/11/29 00:00:29;;;;;;;59.67;43.63;;;;;;;4.65;100.00;101258.25;6110106;23;20724;-85
2022/11/29 00:02:54;;;;;;;60.17;42.58;;;;;;;4.60;100.00;101244.28;6109546;23;20013;-83
2022/11/29 00:05:19;;;;;;;62.88;45.17;;;;;;;4.57;100.00;101236.44;6114297;23;20012;-84
2022/11/29 00:07:45;;;;;;;61.58;43.55;;;;;;;4.58;100.00;101252.22;6112519;23;20001;-85
2022/11/29 00:10:10;;;;;;;58.58;42.13;;;;;;;4.71;100.00;101258.13;6110398;23;20479;-84
2022/11/29 00:12:35;;;;;;;59.90;41.47;;;;;;;4.69;100.00;101249.38;6113674;23;20009;-84
2022/11/29 00:15:01;;;;;;;54.95;41.20;;;;;;;4.74;100.00;101263.34;6089678;23;20037;-85
2022/11/29 00:17:26;;;;;;;52.83;40.78;;;;;;;4.69;100.00;101250.25;6087311;23;20009;-84
2022/11/29 00:19:51;;;;;;;50.08;40.85;;;;;;;4.74;100.00;101247.53;6114364;23;20483;-84
2022/11/29 00:22:16;;;;;;;54.50;42.78;;;;;;;4.74;100.00;101252.78;6086595;23;20045;-85
2022/11/29 00:24:42;;;;;;;52.35;42.35;;;;;;;4.85;100.00;101260.47;6115434;23;20040;-84
2022/11/29 00:27:07;;;;;;;50.05;41.95;;;;;;;4.87;100.00;101264.81;6115476;23;20041;-84
2022/11/29 00:29:32;;;;;;;52.42;41.15;;;;;;;4.90;100.00;101264.78;6113908;23;20393;-84
2022/11/29 00:31:58;;;;;;;48.20;40.90;;;;;;;4.93;100.00;101266.47;6112863;23;20033;-84
2022/11/29 00:34:24;;;;;;;50.15;41.97;;;;;;;4.91;100.00;101255.94;6115060;23;20080;-84
2022/11/29 00:36:49;;;;;;;51.05;41.60;;;;;;;4.96;100.00;101269.91;6114470;23;20032;-84
2022/11/29 00:39:15;;;;;;;52.42;41.65;;;;;;;4.99;100.00;101269.84;6114709;23;20006;-85
2022/11/29 00:41:40;;;;;;;49.85;40.53;;;;;;;5.00;100.00;101273.34;6112676;23;20437;-84
2022/11/29 00:44:06;;;;;;;51.13;40.22;;;;;;;4.96;100.00;101264.63;6113214;23;20014;-84
2022/11/29 00:46:32;;;;;;;51.45;39.97;;;;;;;4.97;100.00;101271.66;6090303;23;20002;-85
2022/11/29 00:48:57;;;;;;;48.42;39.38;;;;;;;4.95;100.00;101270.81;6091454;23;20006;-85
2022/11/29 00:51:23;;;;;;;48.15;38.88;;;;;;;4.90;100.00;101251.59;6117143;23;20558;-85
2022/11/29 00:53:48;;;;;;;46.70;39.80;;;;;;;4.90;100.00;101245.44;6087152;23;20178;-85
2022/11/29 00:56:13;;;;;;;47.03;37.72;;;;;;;4.96;100.00;101263.78;6116357;23;20010;-84
2022/11/29 00:58:41;;;;;;;50.88;38.85;;;;;;;4.94;100.00;101261.16;6114572;23;20014;-85
2022/11/29 01:01:06;;;;;;;44.95;37.78;;;;;;;4.89;100.00;101254.22;6114563;23;20012;-85
2022/11/29 01:03:33;;;;;;;46.33;37.75;;;;;;;4.86;100.00;101260.47;6118510;23;20006;-84
2022/11/29 01:06:00;;;;;;;45.15;36.83;;;;;;;4.83;100.00;101263.16;6119431;23;20216;-85
2022/11/29 01:08:26;;;;;;;45.83;38.13;;;;;;;4.77;100.00;101255.38;6089703;23;20017;-85
2022/11/29 01:11:04;;;;;;;46.20;37.65;;;;;;;4.79;100.00;101258.84;6123125;23;20255;-85
2022/11/29 01:13:29;;;;;;;42.33;36.10;;;;;;;4.74;100.00;101260.72;6125460;23;20014;-86
2022/11/29 01:15:56;;;;;;;50.33;38.72;;;;;;;4.72;100.00;101259.84;6128943;23;20010;-86
2022/11/29 01:18:22;;;;;;;42.17;34.67;;;;;;;4.70;100.00;101270.44;6119066;23;20012;-85
2022/11/29 01:21:01;;;;;;;48.00;37.08;;;;;;;4.70;100.00;101265.16;6118726;23;20025;-85
2022/11/29 01:23:27;;;;;;;47.17;37.80;;;;;;;4.61;100.00;101259.22;6114281;23;20021;-85
2022/11/29 01:26:04;;;;;;;45.97;37.85;;;;;;;4.66;100.00;101274.03;6115293;23;20006;-85
2022/11/29 01:28:32;;;;;;;45.58;38.05;;;;;;;4.65;100.00;101280.22;6090727;23;20434;-85
2022/11/29 01:30:58;;;;;;;46.65;37.70;;;;;;;4.66;100.00;101279.31;6117753;23;20002;-85
2022/11/29 01:33:23;;;;;;;45.47;38.08;;;;;;;4.66;100.00;101278.44;6118967;23;20048;-85
2022/11/29 01:35:53;;;;;;;52.92;40.25;;;;;;;4.63;100.00;101282.00;6117420;23;20070;-85
2022/11/29 01:38:19;;;;;;;49.10;39.60;;;;;;;4.63;100.00;101284.63;6089824;23;20014;-85
2022/11/29 01:40:59;;;;;;;54.10;40.75;;;;;;;4.62;100.00;101287.31;6114291;23;20053;-85
2022/11/29 01:43:24;;;;;;;52.42;40.28;;;;;;;4.64;100.00;101285.50;6114152;23;20033;-84
2022/11/29 01:45:50;;;;;;;48.30;40.35;;;;;;;4.62;100.00;101282.03;6113956;23;20089;-85
2022/11/29 01:48:17;;;;;;;49.38;39.47;;;;;;;4.54;100.00;101282.19;6115362;23;20006;-85
2022/11/29 01:50:42;;;;;;;52.25;39.53;;;;;;;4.57;100.00;101291.81;6113237;23;20014;-85
2022/11/29 01:53:10;;;;;;;55.22;43.13;;;;;;;4.62;100.00;101301.38;6113773;23;20028;-84
2022/11/29 01:55:40;;;;;;;54.80;43.50;;;;;;;4.63;100.00;101296.97;6118140;23;20016;-85
2022/11/29 01:58:07;;;;;;;60.53;45.95;;;;;;;4.66;100.00;101304.81;6116539;23;20009;-85
2022/11/29 02:00:32;;;;;;;52.80;43.75;;;;;;;4.60;100.00;101291.72;6117448;23;20005;-85
2022/11/29 02:03:04;;;;;;;55.58;42.60;;;;;;;4.61;100.00;101306.69;6114244;23;21012;-83
2022/11/29 02:05:29;;;;;;;56.67;42.88;;;;;;;4.55;100.00;101297.09;6118789;23;20017;-85
2022/11/29 02:07:57;;;;;;;53.65;42.13;;;;;;;4.61;100.00;101311.94;6119931;23;20100;-85
2022/11/29 02:10:39;;;;;;;52.97;42.80;;;;;;;4.59;100.00;101322.50;6095577;23;20002;-85
2022/11/29 02:13:19;;;;;;;54.70;42.22;;;;;;;4.54;100.00;101312.94;6116107;23;20009;-84
2022/11/29 02:15:57;;;;;;;54.70;42.67;;;;;;;4.59;100.00;101322.50;6116872;23;20009;-87
2022/11/29 02:18:36;;;;;;;56.28;41.45;;;;;;;4.58;100.00;101317.28;6120157;23;20054;-85
2022/11/29 02:21:13;;;;;;;51.55;39.28;;;;;;;4.51;100.00;101313.88;6093697;23;20084;-86
2022/11/29 02:24:11;;;;;;;57.50;43.00;;;;;;;4.56;100.00;101327.84;6093643;23;20036;-85
2022/11/29 02:27:00;;;;;;;57.95;42.60;;;;;;;4.58;100.00;101325.19;6119694;23;20017;-84
2022/11/29 02:29:47;;;;;;;62.00;42.95;;;;;;;4.58;100.00;101335.72;6114532;23;20029;-85
2022/11/29 02:32:47;;;;;;;56.85;42.92;;;;;;;4.57;100.00;101336.63;6113329;23;20056;-85
2022/11/29 02:35:35;;;;;;;66.25;44.60;;;;;;;4.56;100.00;101338.41;6116778;23;20021;-84
2022/11/29 02:38:29;;;;;;;61.88;45.67;;;;;;;4.58;100.00;101338.38;6116908;23;20006;-85
2022/11/29 02:41:27;;;;;;;63.45;44.40;;;;;;;4.51;100.00;101324.41;6114737;23;20006;-84
2022/11/29 02:44:20;;;;;;;59.90;41.63;;;;;;;4.43;100.00;101306.13;6115113;23;20064;-86
2022/11/29 02:47:00;;;;;;;58.22;42.78;;;;;;;4.56;100.00;101324.34;6115140;23;20001;-85
2022/11/29 02:49:53;;;;;;;68.45;45.92;;;;;;;4.50;100.00;101312.13;6116381;23;20037;-86
2022/11/29 02:52:23;;;;;;;71.95;47.85;;;;;;;4.58;100.00;101319.91;6118019;23;20450;-85
2022/11/29 02:55:03;;;;;;;69.63;47.17;;;;;;;4.57;100.00;101334.00;6117573;23;20016;-85
2022/11/29 02:57:44;;;;;;;70.88;46.70;;;;;;;4.56;100.00;101324.34;6116136;23;20006;-85
2022/11/29 03:00:14;;;;;;;81.00;51.78;;;;;;;4.60;100.00;101337.44;6118983;23;20428;-85
2022/11/29 03:02:47;;;;;;;90.10;53.58;;;;;;;4.60;100.00;101334.81;6088933;23;20009;-85
2022/11/29 03:05:34;;;;;;;88.97;54.63;;;;;;;4.62;100.00;101343.53;6114265;23;20065;-84
2022/11/29 03:08:08;;;;;;;88.88;52.25;;;;;;;4.61;100.00;101340.94;6114409;23;20831;-85
2022/11/29 03:10:58;;;;;;;99.45;52.72;;;;;;;4.60;100.00;101348.00;6115167;23;20016;-85
2022/11/29 03:13:57;;;;;;;79.00;50.65;;;;;;;4.65;100.00;101353.19;6115998;23;20021;-85
2022/11/29 03:16:40;;;;;;;104.25;55.58;;;;;;;4.69;100.00;101357.50;6113338;23;20105;-86
2022/11/29 03:19:42;;;;;;;95.43;55.83;;;;;;;4.71;100.00;101359.19;6115793;23;20006;-84
2022/11/29 03:22:29;;;;;;;99.45;56.05;;;;;;;4.73;100.00;101360.06;6114432;23;20077;-85
2022/11/29 03:25:05;;;;;;;135.93;60.85;;;;;;;4.72;100.00;101362.69;6115457;23;20026;-85
2022/11/29 03:27:42;;;;;;;154.13;61.92;;;;;;;4.72;100.00;101360.97;6118240;23;20006;-85
2022/11/29 03:30:12;;;;;;;127.82;59.65;;;;;;;4.66;100.00;101362.81;6114914;23;20038;-85
2022/11/29 03:32:54;;;;;;;170.90;59.00;;;;;;;4.71;100.00;101368.88;6114785;23;20005;-86
2022/11/29 03:35:29;;;;;;;134.73;57.58;;;;;;;4.72;100.00;101367.97;6090436;23;20096;-85
2022/11/29 03:38:03;;;;;;;201.57;63.63;;;;;;;4.71;100.00;101375.00;6116028;23;20020;-85
2022/11/29 03:40:32;;;;;;;;;;;;;;;4.75;100.00;101373.19;6089440;23;20021;-85
2022/11/29 03:43:08;;;;;;;166.75;60.20;;;;;;;4.70;100.00;101377.69;6115297;23;20394;-85
2022/11/29 03:45:50;;;;;;;174.02;65.07;;;;;;;4.72;100.00;101381.16;6114088;23;20009;-85
2022/11/29 03:48:33;;;;;;;117.93;59.50;;;;;;;4.69;100.00;101381.22;6114103;23;20016;-84
2022/11/29 03:51:06;;;;;;;162.40;62.63;;;;;;;4.73;100.00;101390.81;6113279;23;20006;-84
2022/11/29 03:53:56;;;;;;;158.40;62.22;;;;;;;4.75;100.00;101394.28;6090168;23;20024;-85
2022/11/29 03:56:33;;;;;;;132.95;58.72;;;;;;;4.74;100.00;101384.66;6118356;23;20413;-86
2022/11/29 03:59:24;;;;;;;123.57;60.35;;;;;;;4.79;100.00;101390.69;6119340;23;20431;-85
2022/11/29 04:02:28;;;;;;;275.25;72.78;;;;;;;4.76;100.00;101377.56;6090406;23;20013;-85
2022/11/29 04:05:00;;;;;;;164.52;63.47;;;;;;;4.81;100.00;101390.66;6119051;23;20033;-84
2022/11/29 04:07:52;;;;;;;219.25;67.45;;;;;;;4.82;100.00;101392.44;6119503;23;20017;-84
2022/11/29 04:10:44;;;;;;;159.20;61.47;;;;;;;4.83;100.00;101402.06;6118159;23;20846;-85
2022/11/29 04:13:30;;;;;;;141.38;61.55;;;;;;;4.85;100.00;101398.53;6118796;23;20105;-85
2022/11/29 04:16:18;;;;;;;185.40;63.00;;;;;;;4.85;100.00;101401.16;6112884;23;20104;-85
2022/11/29 04:18:49;;;;;;;181.90;61.55;;;;;;;4.84;100.00;101407.31;6109769;23;20028;-83
2022/11/29 04:21:29;;;;;;;136.48;59.03;;;;;;;4.85;100.00;101394.97;6110654;23;20069;-85
2022/11/29 04:24:13;;;;;;;120.95;58.00;;;;;;;4.83;100.00;101405.56;6114883;23;20013;-85
2022/11/29 04:27:13;;;;;;;190.13;61.55;;;;;;;4.85;100.00;101408.16;6092681;23;20018;-85
2022/11/29 04:29:50;;;;;;;137.18;61.55;;;;;;;4.84;100.00;101409.06;6112450;23;20108;-86
2022/11/29 04:32:49;;;;;;;148.20;61.67;;;;;;;4.85;100.00;101410.81;6116454;23;20033;-86
2022/11/29 04:35:20;;;;;;;136.40;60.05;;;;;;;4.84;100.00;101412.59;6090618;23;20432;-86
2022/11/29 04:38:16;;;;;;;116.53;57.85;;;;;;;4.85;100.00;101416.09;6110934;23;20025;-86
2022/11/29 04:41:13;;;;;;;211.75;63.92;;;;;;;4.86;100.00;101415.22;6111389;23;20417;-85
2022/11/29 04:43:48;;;;;;;152.52;58.22;;;;;;;4.85;100.00;101422.25;6102232;23;20037;-84
2022/11/29 04:46:30;;;;;;;147.32;60.67;;;;;;;4.84;100.00;101424.91;6115123;23;20391;-85
2022/11/29 04:49:14;;;;;;;135.15;57.90;;;;;;;4.86;100.00;101431.91;6114010;23;20002;-85
2022/11/29 04:52:00;;;;;;;190.95;64.13;;;;;;;4.83;100.00;101420.53;6120058;23;20013;-84
2022/11/29 04:54:38;;;;;;;124.90;58.60;;;;;;;4.87;100.00;101428.38;6115911;23;20010;-86
2022/11/29 04:57:17;;;;;;;254.05;72.55;;;;;;;4.84;100.00;101425.78;6117452;23;20005;-84
2022/11/29 05:00:08;;;;;;;123.28;59.15;;;;;;;4.89;100.00;101437.13;6115831;23;19998;-85
2022/11/29 05:02:54;;;;;;;238.73;68.00;;;;;;;4.88;100.00;101435.38;6116909;23;20006;-86
2022/11/29 05:05:28;;;;;;;114.05;56.72;;;;;;;4.87;100.00;101428.38;6114613;23;20045;-85
2022/11/29 05:08:18;;;;;;;145.48;57.92;;;;;;;4.88;100.00;101431.88;6115508;23;20033;-86
2022/11/29 05:11:09;;;;;;;134.88;60.13;;;;;;;4.86;100.00;101428.41;6116145;23;20017;-84
2022/11/29 05:14:02;;;;;;;211.82;66.28;;;;;;;4.85;100.00;101438.09;6117113;23;20487;-85
2022/11/29 05:16:50;;;;;;;108.47;54.55;;;;;;;4.86;100.00;101447.72;6091791;23;20006;-86
2022/11/29 05:19:45;;;;;;;201.00;63.75;;;;;;;4.84;100.00;101446.00;6117188;23;20010;-86
2022/11/29 05:22:57;;;;;;;123.18;56.17;;;;;;;4.84;100.00;101456.56;6116824;23;20009;-85
2022/11/29 05:25:36;;;;;;;144.18;59.28;;;;;;;4.83;100.00;101460.97;6087320;23;20010;-85
2022/11/29 05:28:28;;;;;;;109.93;56.22;;;;;;;4.83;100.00;101465.38;6088991;23;20007;-85
2022/11/29 05:31:18;;;;;;;120.95;58.10;;;;;;;4.81;100.00;101462.78;6084834;23;20007;-86
2022/11/29 05:33:43;;;;;;;150.70;58.42;;;;;;;4.83;100.00;101470.66;6083865;23;20038;-85
2022/11/29 05:36:38;;;;;;;128.65;55.55;;;;;;;4.84;100.00;101481.16;6085070;23;20021;-85
2022/11/29 05:39:18;;;;;;;131.90;56.70;;;;;;;4.77;100.00;101469.00;6079538;23;20010;-85
2022/11/29 05:42:18;;;;;;;186.13;62.20;;;;;;;4.83;100.00;101489.97;6084320;23;20429;-86
2022/11/29 05:44:52;;;;;;;236.13;67.50;;;;;;;4.74;100.00;101474.31;6086025;23;20491;-86
2022/11/29 05:47:34;;;;;;;204.45;63.72;;;;;;;4.79;100.00;101485.66;6087506;23;20061;-85
2022/11/29 05:50:17;;;;;;;230.40;66.28;;;;;;;4.79;100.00;101485.66;6084174;23;20093;-85
2022/11/29 05:52:56;;;;;;;103.45;55.28;;;;;;;4.82;100.00;101488.25;6085894;23;20020;-84
2022/11/29 05:55:33;;;;;;;134.65;58.67;;;;;;;4.86;100.00;101499.63;6086831;23;20013;-82
2022/11/29 05:58:21;;;;;;;197.27;62.33;;;;;;;4.81;100.00;101491.78;6087004;23;20010;-82
2022/11/29 06:00:55;;;;;;;233.85;67.88;;;;;;;4.83;100.00;101511.06;6086411;23;20002;-85
2022/11/29 06:03:43;;;;;;;168.75;60.45;;;;;;;4.82;100.00;101500.56;6088566;23;20041;-85
2022/11/29 06:06:34;;;;;;;127.45;56.30;;;;;;;4.87;100.00;101520.69;6090118;23;20010;-86
2022/11/29 06:09:17;;;;;;;117.00;55.63;;;;;;;4.84;100.00;101511.94;6088617;23;20037;-84
2022/11/29 06:11:47;;;;;;;119.47;57.25;;;;;;;4.86;100.00;101518.94;6087950;23;20093;-84
2022/11/29 06:14:44;;;;;;;135.50;57.15;;;;;;;4.88;100.00;101524.19;6090312;23;20042;-84
2022/11/29 06:17:51;;;;;;;183.80;63.63;;;;;;;4.91;100.00;101525.00;6064148;23;20153;-85
2022/11/29 06:20:48;;;;;;;121.97;56.45;;;;;;;4.90;100.00;101525.91;6077234;23;20006;-85
2022/11/29 06:23:33;;;;;;;111.30;55.13;;;;;;;4.89;100.00;101540.00;6086880;23;20009;-86
2022/11/29 06:26:28;;;;;;;105.10;54.22;;;;;;;4.90;100.00;101547.03;6116319;23;20025;-85
2022/11/29 06:29:20;;;;;;;91.18;52.50;;;;;;;4.94;100.00;101551.34;6112894;23;20206;-84
2022/11/29 06:32:10;;;;;;;103.07;54.00;;;;;;;4.91;100.00;101561.06;6114509;23;20013;-84
2022/11/29 06:34:45;;;;;;;103.60;53.72;;;;;;;4.88;100.00;101556.72;6070505;23;20045;-84
2022/11/29 06:37:18;;;;;;;114.30;54.45;;;;;;;4.92;100.00;101562.81;6093462;23;20045;-84
2022/11/29 06:39:44;;;;;;;128.60;56.13;;;;;;;4.90;100.00;101560.22;6118047;23;20101;-84
2022/11/29 06:42:09;;;;;;;121.85;56.13;;;;;;;4.92;100.00;101566.31;6114733;23;20020;-85
2022/11/29 06:44:35;;;;;;;102.20;53.53;;;;;;;4.88;100.00;101550.56;6115772;23;20002;-84
2022/11/29 06:47:06;;;;;;;117.47;55.63;;;;;;;4.96;100.00;101559.22;6115306;23;20006;-85
2022/11/29 06:49:44;;;;;;;105.55;54.47;;;;;;;4.95;100.00;101571.56;6088997;23;20017;-84
2022/11/29 06:52:29;;;;;;;102.70;53.40;;;;;;;4.98;100.00;101575.91;6093828;23;20102;-84
2022/11/29 06:55:26;;;;;;;116.85;54.03;;;;;;;4.98;100.00;101571.50;6117478;23;20035;-84
2022/11/29 06:58:13;;;;;;;113.63;54.70;;;;;;;4.97;100.00;101582.06;6117641;23;20451;-85
2022/11/29 07:00:53;;;;;;;99.20;52.85;;;;;;;4.97;100.00;101576.78;6117295;23;20002;-84
2022/11/29 07:03:50;;;;;;;99.50;52.38;;;;;;;5.01;100.00;101583.75;6117577;23;20076;-84
2022/11/29 07:06:22;;;;;;;107.40;55.10;;;;;;;4.97;100.00;101579.44;6117434;23;20049;-84
2022/11/29 07:08:55;;;;;;;108.50;52.22;;;;;;;5.00;100.00;101585.53;6119018;23;20402;-84
2022/11/29 07:11:20;;;;;;;107.75;52.20;;;;;;;5.00;100.00;101582.03;6116324;23;20572;-85
2022/11/29 07:13:46;;;;;;;118.45;54.60;;;;;;;4.98;100.00;101586.47;6117323;23;20037;-84
2022/11/29 07:16:25;;;;;;;110.00;53.97;;;;;;;5.00;100.00;101593.44;6117108;23;20010;-84
2022/11/29 07:19:19;;;;;;;120.72;54.40;;;;;;;5.03;100.00;101599.59;6115193;23;20002;-84
2022/11/29 07:22:08;;;;;;;115.80;54.70;;;;;;;5.00;100.00;101590.81;6113681;23;20421;-84
2022/11/29 07:25:02;;;;;;;123.25;53.42;;;;;;;5.04;100.00;101596.03;6115749;23;20016;-84
2022/11/29 07:27:44;;;;;;;103.38;51.95;;;;;;;5.05;100.00;101596.00;6117004;23;20021;-85
2022/11/29 07:30:15;;;;;;;121.63;53.65;;;;;;;5.05;100.00;101597.78;6119565;23;20402;-84
2022/11/29 07:33:00;;;;;;;127.57;55.13;;;;;;;5.07;100.00;101607.44;6117412;23;20009;-84
2022/11/29 07:35:40;;;;;;;131.32;56.42;;;;;;;4.97;100.00;101598.78;6117526;23;20009;-83
2022/11/29 07:38:23;;;;;;;128.88;57.47;;;;;;;5.09;100.00;101615.31;6117961;23;20001;-83
2022/11/29 07:41:12;;;;;;;128.68;58.03;;;;;;;5.09;100.00;101621.44;6113854;23;20313;-83
2022/11/29 07:43:56;;;;;;;125.88;54.15;;;;;;;5.08;100.00;101621.50;6116982;23;20006;-84
2022/11/29 07:46:21;;;;;;;137.88;56.13;;;;;;;5.12;100.00;101629.31;6114005;23;20006;-84
2022/11/29 07:48:46;;;;;;;130.07;56.20;;;;;;;5.14;100.00;101626.66;6114675;23;20016;-84
2022/11/29 07:51:12;;;;;;;151.52;59.67;;;;;;;5.04;100.00;101612.75;6111880;23;20037;-83
2022/11/29 07:53:42;;;;;;;124.88;52.90;;;;;;;5.15;100.00;101628.41;6112833;23;20006;-84
2022/11/29 07:56:11;;;;;;;135.93;56.10;;;;;;;5.17;100.00;101634.53;6085722;23;20093;-82
2022/11/29 07:58:37;;;;;;;116.78;54.88;;;;;;;5.17;100.00;101623.97;6112098;23;20006;-83
2022/11/29 08:01:02;;;;;;;135.48;58.10;;;;;;;5.18;100.00;101623.97;6111631;23;20601;-83
2022/11/29 08:03:28;;;;;;;170.00;62.78;;;;;;;5.23;100.00;101637.09;6115015;23;20010;-84
2022/11/29 08:05:53;;;;;;;178.70;61.30;;;;;;;5.21;100.00;101621.25;6114952;23;20135;-85
2022/11/29 08:08:19;;;;;;;167.38;58.60;;;;;;;5.25;100.00;101628.22;6117323;23;20076;-85
2022/11/29 08:10:44;;;;;;;145.55;58.38;;;;;;;5.23;100.00;101626.53;6130403;23;20018;-84
2022/11/29 08:13:09;;;;;;;134.90;58.33;;;;;;;5.21;100.00;101623.03;6126035;23;20085;-84
2022/11/29 08:15:35;;;;;;;142.52;56.80;;;;;;;5.17;100.00;101613.41;6122076;23;20006;-85
2022/11/29 08:18:02;;;;;;;124.45;55.40;;;;;;;5.27;100.00;101636.16;6098111;23;20009;-82
2022/11/29 08:20:27;;;;;;;132.50;55.67;;;;;;;5.26;100.00;101637.00;6123161;23;20025;-82
2022/11/29 08:22:57;;;;;;;122.50;57.10;;;;;;;5.28;100.00;101645.78;6116375;23;20006;-83
2022/11/29 08:25:24;;;;;;;136.25;56.72;;;;;;;5.27;100.00;101640.53;6088044;23;20049;-85
2022/11/29 08:27:50;;;;;;;144.00;56.30;;;;;;;5.26;100.00;101631.72;6088828;23;20022;-84
2022/11/29 08:30:17;;;;;;;123.47;54.15;;;;;;;5.36;100.00;101650.97;6086733;23;20006;-83
2022/11/29 08:32:43;;;;;;;137.45;55.60;;;;;;;5.36;100.00;101648.31;6089003;23;20002;-84
2022/11/29 08:35:08;;;;;;;133.48;57.13;;;;;;;5.38;100.00;101652.66;6088611;23;20085;-83
2022/11/29 08:37:34;;;;;;;134.73;56.70;;;;;;;5.35;100.00;101647.44;6086220;23;20010;-83
2022/11/29 08:39:59;;;;;;;124.50;57.42;;;;;;;5.38;100.00;101650.00;6087532;23;20002;-83
2022/11/29 08:42:24;;;;;;;126.63;56.80;;;;;;;5.40;100.00;101656.16;6086203;23;20036;-85
2022/11/29 08:44:50;;;;;;;120.85;55.63;;;;;;;5.32;100.00;101647.50;6085590;23;20006;-85
2022/11/29 08:50:02;;;;;;;116.75;55.95;;;;;;;5.38;100.00;101657.94;6090430;23;20026;-85
2022/11/29 08:55:21;;;;;;;113.13;53.42;;;;;;;5.35;100.00;101663.28;6090381;23;20021;-85
2022/11/29 08:57:48;;;;;;;110.88;54.50;;;;;;;5.40;100.00;101672.00;6090984;23;20338;-85
2022/11/29 09:00:14;;;;;;;107.63;53.58;;;;;;;5.43;100.00;101676.34;6090148;23;20002;-85
2022/11/29 09:02:39;;;;;;;102.22;51.25;;;;;;;5.35;100.00;101667.66;6092681;23;20013;-84
2022/11/29 09:05:06;;;;;;;90.90;51.28;;;;;;;5.43;100.00;101677.25;6092987;23;20006;-85
2022/11/29 09:07:32;;;;;;;91.97;50.03;;;;;;;5.44;100.00;101668.41;6088354;23;20007;-83
2022/11/29 09:09:57;;;;;;;93.55;50.20;;;;;;;5.43;100.00;101679.88;6086990;23;20021;-84
2022/11/29 09:12:23;;;;;;;96.93;50.83;;;;;;;5.48;100.00;101671.88;6087626;23;20053;-84
2022/11/29 09:14:48;;;;;;;91.28;49.38;;;;;;;5.53;100.00;101677.09;6085582;23;20014;-85
2022/11/29 09:17:13;;;;;;;86.60;48.10;;;;;;;5.63;100.00;101682.16;6085418;23;20006;-84
2022/11/29 09:19:39;;;;;;;96.75;50.30;;;;;;;5.66;100.00;101684.75;6089388;23;20428;-84
2022/11/29 09:22:04;;;;;;;81.65;45.83;;;;;;;5.71;100.00;101689.97;6088720;23;20002;-83
2022/11/29 09:24:29;;;;;;;88.97;46.33;;;;;;;5.66;100.00;101681.25;6104869;23;20037;-85
2022/11/29 09:26:54;;;;;;;88.75;45.75;;;;;;;5.67;100.00;101694.41;6116073;23;20006;-85
2022/11/29 09:29:20;;;;;;;92.25;46.60;;;;;;;5.74;100.00;101697.84;6120108;23;20016;-84
2022/11/29 09:31:45;;;;;;;78.50;43.60;;;;;;;5.72;100.00;101694.34;6121716;23;20006;-84
2022/11/29 09:34:15;;;;;;;83.93;45.50;;;;;;;5.78;100.00;101702.19;6120925;23;20025;-85
2022/11/29 09:36:42;;;;;;;80.32;44.17;;;;;;;5.79;100.00;101695.13;6117585;23;20016;-85
2022/11/29 09:39:11;;;;;;;89.95;45.95;;;;;;;5.87;100.00;101704.66;6091919;23;20344;-84
2022/11/29 09:41:57;;;;;;;80.50;44.45;;;;;;;5.89;100.00;101709.91;6115918;23;20041;-84
2022/11/29 09:45:04;;;;;;;88.45;45.03;;;;;;;5.93;100.00;101712.50;6119486;23;20012;-85
2022/11/29 09:47:44;;;;;;;88.88;44.13;;;;;;;6.01;100.00;101715.00;6054721;23;20107;-84
2022/11/29 09:50:23;;;;;;;91.85;43.15;;;;;;;6.07;100.00;101727.25;6055692;23;20014;-84
2022/11/29 09:53:20;;;;;;;97.32;40.35;;;;;;;6.10;100.00;101730.69;6033162;23;20010;-85
2022/11/29 09:55:55;;;;;;;95.57;38.72;;;;;;;6.09;100.00;101730.72;6057099;23;20010;-84
2022/11/29 09:58:25;;;;;;;83.72;36.25;;;;;;;6.06;100.00;101730.78;6057709;23;20572;-85
2022/11/29 10:01:06;;;;;;;87.03;35.05;;;;;;;5.97;100.00;101718.59;6053241;23;20010;-86
2022/11/29 10:03:45;;;;;;;99.97;35.78;;;;;;;5.94;100.00;101734.53;6056673;23;20010;-85
2022/11/29 10:06:29;;;;;;;80.07;34.70;;;;;;;5.86;100.00;101731.97;6055667;23;20037;-85
2022/11/29 10:09:14;;;;;;;86.65;36.03;;;;;;;5.92;100.00;101733.66;6059595;23;20010;-85
2022/11/29 10:11:51;;;;;;;83.97;37.80;;;;;;;5.99;100.00;101733.53;6058787;23;20093;-84
2022/11/29 10:14:26;;;;;;;84.15;36.55;;;;;;;6.00;100.00;101731.75;6059854;23;20010;-85
2022/11/29 10:17:03;;;;;;;85.57;37.03;;;;;;;5.96;100.00;101730.06;6059403;23;20015;-86
2022/11/29 10:19:46;;;;;;;83.47;36.78;;;;;;;6.02;100.00;101734.38;6056966;23;20338;-85
2022/11/29 10:22:24;;;;;;;88.65;38.17;;;;;;;6.04;100.00;101727.28;6104379;23;20005;-87
2022/11/29 10:24:56;;;;;;;82.07;35.95;;;;;;;6.06;100.00;101730.78;6117315;23;20538;-86
2022/11/29 10:27:22;;;;;;;76.85;37.10;;;;;;;6.09;100.00;101731.59;6117115;23;20014;-87
2022/11/29 10:29:50;;;;;;;74.50;35.50;;;;;;;6.02;100.00;101721.16;6117367;23;20392;-85
2022/11/29 10:32:19;;;;;;;80.63;35.83;;;;;;;6.09;100.00;101730.72;6090709;23;20089;-86
2022/11/29 10:34:44;;;;;;;80.30;37.03;;;;;;;6.10;100.00;101733.31;6115798;23;20069;-86
2022/11/29 10:37:14;;;;;;;84.25;36.80;;;;;;;6.09;100.00;101736.88;6118352;23;20010;-85
2022/11/29 10:39:43;;;;;;;68.40;34.97;;;;;;;6.18;100.00;101730.53;6116859;23;19998;-85
2022/11/29 10:45:08;;;;;;;68.75;32.60;;;;;;;6.11;100.00;101724.53;6117315;23;20025;-84
2022/11/29 10:47:33;;;;;;;;;;;;;;;6.24;100.00;101727.81;6119429;23;20013;-84
2022/11/29 10:49:59;;;;;;;64.03;31.65;;;;;;;6.15;100.00;101733.28;6117674;23;20632;-85
2022/11/29 10:52:24;;;;;;;69.25;31.45;;;;;;;6.06;100.00;101726.38;6116600;23;20149;-85
2022/11/29 10:54:55;;;;;;;74.03;32.88;;;;;;;6.05;100.00;101726.38;6115646;23;20009;-85
2022/11/29 10:57:22;;;;;;;65.10;32.45;;;;;;;6.10;100.00;101729.81;6117554;23;20061;-87
2022/11/29 11:00:05;;;;;;;75.45;34.22;;;;;;;6.18;100.00;101738.47;6119885;23;20028;-85
2022/11/29 11:02:31;;;;;;;75.85;32.72;;;;;;;6.15;100.00;101720.06;6118900;23;20340;-85
2022/11/29 11:04:58;;;;;;;79.25;34.58;;;;;;;6.29;100.00;101738.28;6119744;23;20009;-85
2022/11/29 11:07:34;;;;;;;74.78;32.97;;;;;;;6.31;100.00;101736.47;6115097;23;20018;-85
2022/11/29 11:10:01;;;;;;;66.93;32.88;;;;;;;6.30;100.00;101730.31;6115639;23;20100;-84
2022/11/29 11:12:32;;;;;;;63.65;31.20;;;;;;;6.28;100.00;101741.84;6113625;23;20044;-84
2022/11/29 11:15:22;;;;;;;63.90;33.38;;;;;;;6.33;100.00;101735.56;6088769;23;20419;-85
2022/11/29 11:17:59;;;;;;;68.20;33.47;;;;;;;6.36;100.00;101742.56;6113324;23;20006;-85
2022/11/29 11:20:29;;;;;;;56.45;30.23;;;;;;;6.36;100.00;101732.00;6088948;23;20366;-85
2022/11/29 11:23:03;;;;;;;55.65;29.65;;;;;;;6.38;100.00;101730.19;6114392;23;20005;-85
2022/11/29 11:25:33;;;;;;;51.75;28.75;;;;;;;6.36;100.00;101735.50;6115344;23;20017;-85
2022/11/29 11:28:33;;;;;;;53.75;27.27;;;;;;;6.35;100.00;101731.09;6113988;23;20010;-85
2022/11/29 11:31:07;;;;;;;61.15;29.83;;;;;;;6.38;100.00;101743.41;6115256;23;20009;-83
2022/11/29 11:33:52;;;;;;;52.67;28.55;;;;;;;6.45;100.00;101740.63;6115065;23;20010;-85
2022/11/29 11:36:26;;;;;;;55.88;29.48;;;;;;;6.42;100.00;101742.44;6114475;23;20437;-85
2022/11/29 11:39:08;;;;;;;54.28;28.73;;;;;;;6.49;100.00;101752.88;6093191;23;20005;-84
2022/11/29 11:44:44;;;;;;;53.75;29.30;;;;;;;6.40;100.00;101747.78;6137397;23;20417;-85
2022/11/29 11:47:16;;;;;;;53.95;29.23;;;;;;;6.32;100.00;101744.41;6138099;23;20010;-86
2022/11/29 11:50:02;;;;;;;59.40;29.02;;;;;;;6.35;100.00;101761.97;6139044;23;20006;-85
2022/11/29 11:52:32;;;;;;;58.63;29.80;;;;;;;6.29;100.00;101757.66;6093045;23;20052;-86
2022/11/29 11:55:01;;;;;;;60.35;30.27;;;;;;;6.30;100.00;101767.34;6119924;23;20006;-86
2022/11/29 11:57:28;;;;;;;60.03;30.35;;;;;;;6.31;100.00;101747.94;6089427;23;20608;-85